Time;durP1;ratioP1;P1;durP2;ratioP2;P2;SDS_P1;SDS_P2;PMS_P1;PMS_P2;Temp;Humidity;BMP_temperature;BMP_pressure;BME280_temperature;BME280_humidity;BME280_pressure;Samples;Min_cycle;Max_cycle;Signal;HPM_P1;HPM_P2
2023/12/01 00:01:27;;;;;;;59.78;31.85;;;1.00;99.90;;;;;;6273998;22;20054;-84
2023/12/01 00:04:17;;;;;;;60.42;33.13;;;0.90;99.90;;;;;;6272963;22;20054;-80
2023/12/01 00:07:05;;;;;;;62.65;35.42;;;0.90;99.90;;;;;;6276718;22;20099;-82
2023/12/01 00:09:55;;;;;;;66.53;35.42;;;0.90;99.90;;;;;;6273681;22;20137;-83
2023/12/01 00:12:42;;;;;;;57.13;32.90;;;1.00;99.90;;;;;;6275979;22;20058;-82
2023/12/01 00:15:29;;;;;;;60.33;34.38;;;1.00;99.90;;;;;;6273364;22;20429;-78
2023/12/01 00:18:19;;;;;;;64.60;33.95;;;1.00;99.90;;;;;;6277990;22;20043;-82
2023/12/01 00:21:10;;;;;;;56.70;33.83;;;0.90;99.90;;;;;;6277131;22;20146;-83
2023/12/01 00:23:57;;;;;;;59.08;32.55;;;0.90;99.90;;;;;;6276326;22;20027;-83
2023/12/01 00:26:45;;;;;;;54.28;31.10;;;0.90;99.90;;;;;;6271797;22;20093;-83
2023/12/01 00:29:33;;;;;;;54.47;30.13;;;0.90;99.90;;;;;;6273208;22;20023;-83
2023/12/01 00:32:20;;;;;;;53.33;31.92;;;0.90;99.90;;;;;;6276016;22;20079;-82
2023/12/01 00:35:09;;;;;;;58.03;31.73;;;0.90;99.90;;;;;;6275219;22;20020;-83
2023/12/01 00:37:56;;;;;;;55.00;30.73;;;0.90;99.90;;;;;;6271530;22;20020;-83
2023/12/01 00:40:43;;;;;;;56.47;31.92;;;0.90;99.90;;;;;;6275142;22;20096;-82
2023/12/01 00:43:33;;;;;;;60.83;33.60;;;0.90;99.90;;;;;;6274181;22;20035;-83
2023/12/01 00:46:20;;;;;;;58.85;32.33;;;0.90;99.90;;;;;;6275867;22;20286;-83
2023/12/01 00:49:11;;;;;;;57.78;33.00;;;0.90;99.90;;;;;;6272321;22;20038;-82
2023/12/01 00:51:59;;;;;;;52.30;32.40;;;1.00;99.90;;;;;;6274647;22;20023;-83
2023/12/01 00:54:46;;;;;;;58.38;34.97;;;1.00;99.90;;;;;;6275287;22;20028;-78
2023/12/01 00:57:34;;;;;;;56.08;33.17;;;0.90;99.90;;;;;;6275758;22;20279;-82
2023/12/01 01:00:25;;;;;;;55.10;31.58;;;1.00;99.90;;;;;;6277182;22;20073;-83
2023/12/01 01:03:15;;;;;;;60.28;32.53;;;1.00;99.90;;;;;;6275135;22;20020;-82
2023/12/01 01:06:03;;;;;;;56.13;31.50;;;1.00;99.90;;;;;;6273729;22;20127;-83
2023/12/01 01:08:52;;;;;;;55.85;32.08;;;0.90;99.90;;;;;;6271753;22;20027;-84
2023/12/01 01:11:39;;;;;;;58.92;32.75;;;0.90;99.90;;;;;;6273511;22;20023;-83
2023/12/01 01:14:31;;;;;;;63.65;34.28;;;0.90;99.90;;;;;;6278280;22;20126;-82
2023/12/01 01:17:19;;;;;;;64.32;34.35;;;0.90;99.90;;;;;;6283593;22;20031;-84
2023/12/01 01:20:10;;;;;;;53.28;29.70;;;0.80;99.90;;;;;;6274119;22;20082;-83
2023/12/01 01:22:59;;;;;;;56.50;31.85;;;0.80;99.90;;;;;;6275772;22;20174;-83
2023/12/01 01:25:46;;;;;;;66.30;35.03;;;0.80;99.90;;;;;;6275100;22;20287;-83
2023/12/01 01:28:33;;;;;;;72.60;38.00;;;0.80;99.90;;;;;;6272781;22;20020;-84
2023/12/01 01:31:23;;;;;;;71.70;37.90;;;0.70;99.90;;;;;;6273868;22;20027;-84
2023/12/01 01:34:10;;;;;;;76.18;39.35;;;0.70;99.90;;;;;;6273011;22;20111;-81
2023/12/01 01:36:58;;;;;;;72.30;39.35;;;0.70;99.90;;;;;;6275174;22;20048;-82
2023/12/01 01:39:45;;;;;;;71.60;39.22;;;0.70;99.90;;;;;;6274762;22;20031;-84
2023/12/01 01:42:33;;;;;;;80.28;42.22;;;0.60;99.90;;;;;;6273821;22;20020;-84
2023/12/01 01:45:21;;;;;;;73.82;41.58;;;0.60;99.90;;;;;;6275252;22;20023;-84
2023/12/01 01:48:08;;;;;;;80.88;43.28;;;0.60;99.90;;;;;;6277263;22;20023;-83
2023/12/01 01:50:58;;;;;;;84.35;42.42;;;0.60;99.90;;;;;;6274583;22;20232;-83
2023/12/01 01:53:49;;;;;;;87.22;43.05;;;0.50;99.90;;;;;;6275902;22;20402;-84
2023/12/01 01:56:37;;;;;;;80.57;39.90;;;0.50;99.90;;;;;;6273565;22;20101;-83
2023/12/01 01:59:27;;;;;;;80.20;36.03;;;0.50;99.90;;;;;;6275797;22;20015;-84
2023/12/01 02:02:18;;;;;;;104.82;36.67;;;0.50;99.90;;;;;;6277876;22;20102;-83
2023/12/01 02:05:12;;;;;;;81.40;34.03;;;0.50;99.90;;;;;;6279048;22;20051;-83
2023/12/01 02:08:23;;;;;;;68.53;33.50;;;0.40;99.90;;;;;;6282483;22;20123;-83
2023/12/01 02:11:13;;;;;;;67.03;34.00;;;0.40;99.90;;;;;;6289135;22;20024;-82
2023/12/01 02:14:01;;;;;;;71.90;34.42;;;0.40;99.90;;;;;;6288629;22;20016;-82
2023/12/01 02:16:48;;;;;;;86.68;37.17;;;0.40;99.90;;;;;;6287782;22;20028;-82
2023/12/01 02:19:35;;;;;;;129.38;38.47;;;0.40;99.90;;;;;;6283161;22;20028;-83
2023/12/01 02:22:27;;;;;;;309.48;47.67;;;0.40;99.90;;;;;;6274398;22;20110;-83
2023/12/01 02:25:15;;;;;;;73.53;37.53;;;0.30;99.90;;;;;;6273217;22;20052;-82
2023/12/01 02:28:02;;;;;;;81.93;37.78;;;0.30;99.90;;;;;;6273092;22;20088;-82
2023/12/01 02:30:53;;;;;;;73.57;36.92;;;0.30;99.90;;;;;;6272420;22;20050;-83
2023/12/01 02:33:41;;;;;;;62.70;33.42;;;0.30;99.90;;;;;;6274408;22;20043;-83
2023/12/01 02:36:33;;;;;;;73.60;36.65;;;0.40;99.90;;;;;;6273662;22;20035;-82
2023/12/01 02:39:21;;;;;;;63.33;35.70;;;0.40;99.90;;;;;;6274378;22;20316;-82
2023/12/01 02:42:08;;;;;;;62.78;35.95;;;0.40;99.90;;;;;;6275483;22;20114;-82
2023/12/01 02:44:55;;;;;;;63.67;34.75;;;0.40;99.90;;;;;;6276825;22;20038;-83
2023/12/01 02:47:47;;;;;;;68.50;37.15;;;0.40;99.90;;;;;;6271677;22;20303;-83
2023/12/01 02:50:35;;;;;;;67.07;35.30;;;0.40;99.90;;;;;;6273892;22;20610;-84
2023/12/01 02:53:23;;;;;;;66.55;35.00;;;0.40;99.90;;;;;;6269003;22;20034;-83
2023/12/01 02:56:13;;;;;;;64.50;33.40;;;0.40;99.90;;;;;;6272442;22;20031;-84
2023/12/01 02:59:00;;;;;;;57.90;33.05;;;0.40;99.90;;;;;;6270975;22;20483;-83
2023/12/01 03:01:50;;;;;;;62.83;35.03;;;0.40;99.90;;;;;;6271358;22;20298;-83
2023/12/01 03:04:37;;;;;;;67.63;36.42;;;0.40;99.90;;;;;;6270337;22;20121;-83
2023/12/01 03:07:24;;;;;;;75.55;37.80;;;0.40;99.90;;;;;;6270387;22;20079;-83
2023/12/01 03:10:12;;;;;;;75.88;38.38;;;0.40;99.90;;;;;;6268860;22;20034;-83
2023/12/01 03:13:02;;;;;;;123.88;42.20;;;0.40;99.90;;;;;;6271348;22;20034;-84
2023/12/01 03:15:49;;;;;;;69.25;36.78;;;0.40;99.90;;;;;;6274744;22;20077;-81
2023/12/01 03:18:38;;;;;;;78.65;38.60;;;0.40;99.90;;;;;;6276388;22;20107;-84
2023/12/01 03:21:26;;;;;;;68.68;36.47;;;0.40;99.90;;;;;;6271975;22;20030;-84
2023/12/01 03:24:13;;;;;;;74.32;37.08;;;0.40;99.90;;;;;;6271601;22;20019;-84
2023/12/01 03:27:01;;;;;;;67.10;36.42;;;0.40;99.90;;;;;;6219326;22;1201308;-84
2023/12/01 03:29:48;;;;;;;80.43;39.90;;;0.40;99.90;;;;;;6270689;22;20046;-84
2023/12/01 03:32:35;;;;;;;92.03;42.63;;;0.40;99.90;;;;;;6275315;22;20413;-84
2023/12/01 03:35:24;;;;;;;93.10;41.88;;;0.40;99.90;;;;;;6273954;22;20051;-84
2023/12/01 03:38:21;;;;;;;83.43;39.60;;;0.40;99.90;;;;;;6273248;22;20023;-83
2023/12/01 03:41:09;;;;;;;82.10;37.95;;;0.40;99.90;;;;;;6274917;22;20032;-84
2023/12/01 03:43:56;;;;;;;79.40;38.15;;;0.40;99.90;;;;;;6274925;22;20024;-84
2023/12/01 03:46:43;;;;;;;80.28;37.90;;;0.40;99.90;;;;;;6274867;22;20027;-84
2023/12/01 03:49:31;;;;;;;86.20;39.17;;;0.40;99.90;;;;;;6276016;22;20019;-84
2023/12/01 03:52:18;;;;;;;76.72;37.38;;;0.40;99.90;;;;;;6273760;22;20050;-84
2023/12/01 03:55:08;;;;;;;75.28;36.17;;;0.40;99.90;;;;;;6275175;22;20027;-81
2023/12/01 03:57:55;;;;;;;85.88;38.47;;;0.40;99.90;;;;;;6275456;22;20031;-84
2023/12/01 04:00:43;;;;;;;83.43;38.70;;;0.40;99.90;;;;;;6274162;22;20031;-84
2023/12/01 04:03:32;;;;;;;96.45;41.10;;;0.40;99.90;;;;;;6277143;22;20020;-83
2023/12/01 04:06:22;;;;;;;82.80;40.80;;;0.50;99.90;;;;;;6279169;22;20035;-83
2023/12/01 04:09:10;;;;;;;88.60;41.97;;;0.40;99.90;;;;;;6277015;22;20020;-85
2023/12/01 04:11:57;;;;;;;89.25;40.65;;;0.40;99.90;;;;;;6277943;22;20047;-85
2023/12/01 04:14:45;;;;;;;91.28;41.53;;;0.40;99.90;;;;;;6272872;22;20058;-85
2023/12/01 04:17:32;;;;;;;79.10;38.95;;;0.40;99.90;;;;;;6273998;22;20052;-85
2023/12/01 04:20:20;;;;;;;82.80;39.33;;;0.40;99.90;;;;;;6274483;22;20111;-85
2023/12/01 04:23:14;;;;;;;82.95;39.75;;;0.40;99.90;;;;;;6273918;22;20481;-85
2023/12/01 04:26:02;;;;;;;79.57;36.10;;;0.40;99.90;;;;;;6276202;22;20023;-86
2023/12/01 04:28:50;;;;;;;74.18;36.58;;;0.40;99.90;;;;;;6274239;22;20023;-85
2023/12/01 04:31:37;;;;;;;76.20;36.25;;;0.40;99.90;;;;;;6274670;22;20024;-85
2023/12/01 04:34:27;;;;;;;82.72;36.75;;;0.40;99.90;;;;;;6273852;22;20027;-85
2023/12/01 04:37:16;;;;;;;76.72;35.95;;;0.40;99.90;;;;;;6276748;22;20024;-86
2023/12/01 04:40:13;;;;;;;80.28;36.67;;;0.40;99.90;;;;;;6277440;22;20087;-85
2023/12/01 04:43:01;;;;;;;71.07;34.30;;;0.40;99.90;;;;;;6283214;22;20164;-85
2023/12/01 04:45:48;;;;;;;91.35;40.10;;;0.40;99.90;;;;;;6283634;22;20034;-84
2023/12/01 04:48:38;;;;;;;86.72;40.55;;;0.40;99.90;;;;;;6280142;22;20028;-85
2023/12/01 04:51:28;;;;;;;103.57;41.53;;;0.40;99.90;;;;;;6278122;22;20126;-85
2023/12/01 04:54:15;;;;;;;81.90;39.83;;;0.40;99.90;;;;;;6271645;22;20062;-85
2023/12/01 04:57:02;;;;;;;121.32;43.22;;;0.50;99.90;;;;;;6274286;22;20024;-85
2023/12/01 04:59:55;;;;;;;129.70;42.88;;;0.40;99.90;;;;;;6274539;22;20032;-85
2023/12/01 05:02:45;;;;;;;64.68;29.08;;;0.40;99.90;;;;;;6275009;22;20023;-85
2023/12/01 05:05:38;;;;;;;369.40;50.88;;;0.40;99.90;;;;;;6275229;22;20035;-85
2023/12/01 05:08:27;;;;;;;;;;;0.40;99.90;;;;;;6273334;22;20027;-84
2023/12/01 05:11:15;;;;;;;412.63;54.38;;;0.40;99.90;;;;;;6275593;22;19915;-84
2023/12/01 05:14:08;;;;;;;139.95;41.17;;;0.30;99.90;;;;;;6271793;22;20034;-84
2023/12/01 05:16:56;;;;;;;283.70;50.05;;;0.30;99.90;;;;;;6273886;22;20028;-84
2023/12/01 05:19:45;;;;;;;286.83;48.95;;;0.30;99.90;;;;;;6271985;22;20701;-84
2023/12/01 05:22:32;;;;;;;364.73;53.80;;;0.30;99.90;;;;;;6273483;22;20083;-84
2023/12/01 05:25:21;;;;;;;117.68;43.58;;;0.30;99.90;;;;;;6270540;22;20038;-81
2023/12/01 05:28:09;;;;;;;226.68;49.40;;;0.30;99.90;;;;;;6272233;22;20027;-83
2023/12/01 05:30:59;;;;;;;131.38;44.70;;;0.30;99.90;;;;;;6275269;22;20326;-84
2023/12/01 05:33:46;;;;;;;93.50;40.22;;;0.30;99.90;;;;;;6274466;22;20027;-82
2023/12/01 05:36:50;;;;;;;90.07;38.58;;;0.40;99.90;;;;;;6274246;22;20027;-81
2023/12/01 05:39:38;;;;;;;90.85;39.45;;;0.40;99.90;;;;;;6272409;22;20053;-80
2023/12/01 05:42:26;;;;;;;92.38;37.78;;;0.40;99.90;;;;;;6275437;22;20161;-82
2023/12/01 05:45:14;;;;;;;97.05;37.42;;;0.40;99.90;;;;;;6274934;22;20106;-82
2023/12/01 05:48:06;;;;;;;90.32;36.45;;;0.40;99.90;;;;;;6272159;22;20062;-81
2023/12/01 05:50:55;;;;;;;80.88;33.75;;;0.40;99.90;;;;;;6271507;22;20031;-81
2023/12/01 05:53:43;;;;;;;77.30;34.63;;;0.40;99.90;;;;;;6274334;22;20038;-82
2023/12/01 05:56:30;;;;;;;77.13;34.15;;;0.40;99.90;;;;;;6274508;22;20040;-81
2023/12/01 05:59:17;;;;;;;79.43;34.47;;;0.40;99.90;;;;;;6275303;22;20106;-82
2023/12/01 06:02:11;;;;;;;82.85;35.95;;;0.40;99.90;;;;;;6270057;22;20039;-81
2023/12/01 06:04:59;;;;;;;88.57;36.13;;;0.40;99.90;;;;;;6274619;22;20441;-82
2023/12/01 06:07:58;;;;;;;85.60;36.58;;;0.40;99.90;;;;;;6277811;22;20020;-80
2023/12/01 06:10:49;;;;;;;71.97;33.65;;;0.40;99.90;;;;;;6271527;22;20034;-82
2023/12/01 06:13:38;;;;;;;99.90;40.75;;;0.40;99.90;;;;;;6272819;22;20134;-82
2023/12/01 06:16:25;;;;;;;99.43;39.40;;;0.40;99.90;;;;;;6275127;22;20042;-82
2023/12/01 06:19:14;;;;;;;94.50;39.08;;;0.30;99.90;;;;;;6273698;22;20322;-80
2023/12/01 06:22:01;;;;;;;73.07;35.53;;;0.40;99.90;;;;;;6269702;22;20035;-81
2023/12/01 06:24:49;;;;;;;95.43;39.08;;;0.40;99.90;;;;;;6271135;22;20055;-83
2023/12/01 06:27:40;;;;;;;75.97;34.15;;;0.40;99.90;;;;;;6274486;22;20020;-81
2023/12/01 06:30:33;;;;;;;72.45;32.90;;;0.40;99.90;;;;;;6275007;22;20020;-81
2023/12/01 06:33:21;;;;;;;63.53;30.70;;;0.40;99.90;;;;;;6274358;22;20383;-84
2023/12/01 06:36:12;;;;;;;62.83;29.42;;;0.40;99.90;;;;;;6278633;22;20027;-82
2023/12/01 06:39:00;;;;;;;69.40;30.48;;;0.40;99.90;;;;;;6278476;22;20113;-84
2023/12/01 06:41:47;;;;;;;62.28;28.83;;;0.40;99.90;;;;;;6274098;22;20023;-83
2023/12/01 06:44:35;;;;;;;67.90;30.60;;;0.40;99.90;;;;;;6278908;22;20081;-83
2023/12/01 06:47:22;;;;;;;61.83;30.00;;;0.40;99.90;;;;;;6274574;22;20038;-84
2023/12/01 06:50:09;;;;;;;58.30;28.63;;;0.40;99.90;;;;;;6277333;22;20146;-84
2023/12/01 06:53:00;;;;;;;56.45;27.58;;;0.40;99.90;;;;;;6275449;22;20039;-81
2023/12/01 06:55:48;;;;;;;57.15;28.70;;;0.40;99.90;;;;;;6275783;22;20106;-83
2023/12/01 06:58:37;;;;;;;54.75;27.05;;;0.40;99.90;;;;;;6276235;22;20031;-84
2023/12/01 07:01:32;;;;;;;55.95;28.45;;;0.40;99.90;;;;;;6272588;22;20027;-83
2023/12/01 07:04:19;;;;;;;53.05;28.90;;;0.40;99.90;;;;;;6274085;22;20020;-86
2023/12/01 07:07:09;;;;;;;57.15;29.08;;;0.40;99.90;;;;;;6271258;22;20019;-85
2023/12/01 07:10:01;;;;;;;61.65;31.63;;;0.40;99.90;;;;;;6279196;22;20047;-79
2023/12/01 07:12:49;;;;;;;59.72;28.98;;;0.40;99.90;;;;;;6280604;22;20694;-85
2023/12/01 07:15:39;;;;;;;59.15;29.65;;;0.40;99.90;;;;;;6280184;22;20028;-83
2023/12/01 07:18:28;;;;;;;54.30;28.27;;;0.40;99.90;;;;;;6274328;22;20082;-82
2023/12/01 07:21:20;;;;;;;57.33;29.52;;;0.40;99.90;;;;;;6273696;22;20683;-83
2023/12/01 07:24:08;;;;;;;60.33;30.30;;;0.50;99.90;;;;;;6274991;22;20110;-82
2023/12/01 07:26:55;;;;;;;62.13;32.00;;;0.50;99.90;;;;;;6274661;22;20035;-81
2023/12/01 07:29:42;;;;;;;58.40;29.48;;;0.50;99.90;;;;;;6273818;22;20035;-82
2023/12/01 07:32:32;;;;;;;64.45;31.20;;;0.50;99.90;;;;;;6274575;22;20024;-84
2023/12/01 07:35:20;;;;;;;61.13;29.98;;;0.50;99.90;;;;;;6276693;22;20038;-84
2023/12/01 07:38:07;;;;;;;59.78;30.20;;;0.50;99.90;;;;;;6283751;22;20044;-84
2023/12/01 07:40:55;;;;;;;50.90;27.80;;;0.50;99.90;;;;;;6282989;22;20057;-82
2023/12/01 07:43:43;;;;;;;55.08;28.73;;;0.50;99.90;;;;;;6280907;22;20048;-84
2023/12/01 07:46:32;;;;;;;52.80;27.20;;;0.50;99.90;;;;;;6282716;22;20125;-83
2023/12/01 07:49:21;;;;;;;52.13;28.60;;;0.60;99.90;;;;;;6280138;22;20397;-80
2023/12/01 07:52:08;;;;;;;51.78;27.63;;;0.50;99.90;;;;;;6276923;22;20028;-84
2023/12/01 07:54:55;;;;;;;52.28;27.05;;;0.60;99.90;;;;;;6277465;22;20035;-84
2023/12/01 07:57:43;;;;;;;54.80;27.65;;;0.60;99.90;;;;;;6274164;22;20487;-82
2023/12/01 08:00:31;;;;;;;49.30;26.77;;;0.60;99.90;;;;;;6277503;22;20023;-79
2023/12/01 08:03:18;;;;;;;61.70;29.90;;;0.60;99.90;;;;;;6277704;22;20430;-83
2023/12/01 08:06:08;;;;;;;56.97;28.35;;;0.60;99.90;;;;;;6279771;22;20108;-82
2023/12/01 08:08:56;;;;;;;53.00;28.42;;;0.70;99.90;;;;;;6272651;22;20401;-84
2023/12/01 08:11:47;;;;;;;51.83;27.38;;;0.60;99.90;;;;;;6271691;22;20038;-87
2023/12/01 08:14:39;;;;;;;52.58;27.33;;;0.60;99.90;;;;;;6273200;22;20170;-87
2023/12/01 08:17:26;;;;;;;55.60;28.05;;;0.70;99.90;;;;;;6271905;22;20121;-86
2023/12/01 08:20:19;;;;;;;60.53;28.83;;;0.70;99.90;;;;;;6270402;22;20410;-84
2023/12/01 08:23:06;;;;;;;50.28;27.23;;;0.70;99.90;;;;;;6270808;22;20027;-85
2023/12/01 08:25:56;;;;;;;58.95;27.83;;;0.70;99.90;;;;;;6273968;22;20028;-86
2023/12/01 08:28:46;;;;;;;57.58;28.25;;;0.70;99.90;;;;;;6273903;22;20310;-86
2023/12/01 08:31:38;;;;;;;53.13;28.10;;;0.70;99.90;;;;;;6274574;22;20023;-85
2023/12/01 08:34:27;;;;;;;58.58;28.05;;;0.70;99.90;;;;;;6275096;22;20031;-86
2023/12/01 08:37:17;;;;;;;55.70;28.88;;;0.70;99.90;;;;;;6273571;22;20027;-85
2023/12/01 08:40:11;;;;;;;56.42;27.85;;;0.80;99.90;;;;;;6270922;22;20070;-85
2023/12/01 08:43:05;;;;;;;59.10;28.08;;;0.80;99.90;;;;;;6274510;22;20053;-83
2023/12/01 08:45:59;;;;;;;65.88;30.92;;;0.90;99.90;;;;;;6274867;22;20302;-86
2023/12/01 08:48:49;;;;;;;60.15;28.65;;;0.90;99.90;;;;;;6274800;22;20026;-84
2023/12/01 08:51:43;;;;;;;57.20;28.73;;;1.00;99.90;;;;;;6273783;22;20053;-84
2023/12/01 08:54:31;;;;;;;66.32;29.17;;;1.10;99.90;;;;;;6274544;22;20418;-83
2023/12/01 08:57:18;;;;;;;62.22;30.60;;;1.10;99.90;;;;;;6274983;22;20099;-85
2023/12/01 09:00:06;;;;;;;63.90;31.23;;;1.10;99.90;;;;;;6275009;22;20031;-85
2023/12/01 09:02:57;;;;;;;64.05;31.40;;;1.20;99.90;;;;;;6273869;22;20034;-85
2023/12/01 09:05:45;;;;;;;64.18;32.03;;;1.20;99.90;;;;;;6274112;22;20074;-84
2023/12/01 09:08:33;;;;;;;68.85;34.53;;;1.30;99.90;;;;;;6276802;22;20126;-85
2023/12/01 09:11:22;;;;;;;63.40;32.00;;;1.30;99.90;;;;;;6275697;22;20019;-84
2023/12/01 09:14:11;;;;;;;55.95;28.08;;;1.30;99.90;;;;;;6272409;22;20110;-84
2023/12/01 09:16:59;;;;;;;55.72;28.85;;;1.30;99.90;;;;;;6272587;22;20043;-84
2023/12/01 09:19:49;;;;;;;55.72;29.30;;;1.30;99.90;;;;;;6272287;22;20035;-82
2023/12/01 09:22:39;;;;;;;61.30;30.63;;;1.40;99.90;;;;;;6273677;22;20351;-84
2023/12/01 09:25:35;;;;;;;59.10;28.63;;;1.50;99.90;;;;;;6272949;22;20097;-83
2023/12/01 09:28:26;;;;;;;52.30;29.05;;;1.50;99.90;;;;;;6274565;22;20034;-83
2023/12/01 09:31:14;;;;;;;57.70;30.25;;;1.60;99.90;;;;;;6273867;22;20032;-84
2023/12/01 09:34:04;;;;;;;51.15;27.27;;;1.60;99.90;;;;;;6270742;22;20023;-83
2023/12/01 09:36:51;;;;;;;48.75;26.17;;;1.70;99.90;;;;;;6277222;22;20119;-82
2023/12/01 09:39:42;;;;;;;53.88;27.67;;;1.70;99.90;;;;;;6275428;22;20106;-84
2023/12/01 09:42:37;;;;;;;;;;;1.60;99.90;;;;;;6274543;22;20031;-83
2023/12/01 09:45:26;;;;;;;31.42;17.15;;;1.60;99.90;;;;;;6272963;22;19922;-84
2023/12/01 09:48:21;;;;;;;47.17;26.77;;;1.50;99.90;;;;;;6275149;22;20069;-80
2023/12/01 09:51:09;;;;;;;51.67;30.25;;;1.50;99.90;;;;;;6274197;22;20193;-82
2023/12/01 09:53:57;;;;;;;51.33;27.67;;;1.50;99.90;;;;;;6273581;22;20094;-81
2023/12/01 09:56:51;;;;;;;52.05;28.88;;;1.60;99.90;;;;;;6275608;22;20050;-82
2023/12/01 09:59:39;;;;;;;57.10;29.55;;;1.70;99.90;;;;;;6270993;22;20057;-81
2023/12/01 10:02:27;;;;;;;51.78;29.45;;;1.70;99.90;;;;;;6271559;22;20419;-83
2023/12/01 10:05:20;;;;;;;82.60;41.03;;;1.70;99.90;;;;;;6270772;22;20024;-83
2023/12/01 10:08:09;;;;;;;55.63;29.73;;;1.80;99.90;;;;;;6275667;22;20307;-84
2023/12/01 10:10:58;;;;;;;42.83;25.30;;;1.80;99.90;;;;;;6271972;22;20015;-83
2023/12/01 10:13:49;;;;;;;40.30;23.45;;;1.90;99.90;;;;;;6271508;22;20145;-84
2023/12/01 10:16:40;;;;;;;29.98;20.35;;;1.90;99.90;;;;;;6271864;22;20023;-84
2023/12/01 10:19:30;;;;;;;35.47;21.92;;;1.80;99.90;;;;;;6272315;22;20117;-83
2023/12/01 10:22:19;;;;;;;38.10;22.67;;;1.70;99.90;;;;;;6270935;22;20034;-83
2023/12/01 10:25:14;;;;;;;32.08;20.50;;;1.70;99.90;;;;;;6272271;22;20019;-82
2023/12/01 10:28:04;;;;;;;33.53;21.55;;;1.60;99.90;;;;;;6274613;22;20165;-83
2023/12/01 10:30:58;;;;;;;32.95;20.85;;;1.60;99.90;;;;;;6272833;22;20306;-83
2023/12/01 10:33:47;;;;;;;33.15;19.58;;;1.60;99.90;;;;;;6273589;22;20121;-84
2023/12/01 10:36:37;;;;;;;34.25;21.65;;;1.60;99.90;;;;;;6274290;22;20031;-84
2023/12/01 10:39:30;;;;;;;32.00;20.13;;;1.60;99.90;;;;;;6273672;22;20460;-83
2023/12/01 10:42:18;;;;;;;30.20;18.08;;;1.70;99.90;;;;;;6273035;22;20493;-83
2023/12/01 10:45:10;;;;;;;27.85;18.13;;;1.60;99.90;;;;;;6272168;22;20024;-84
2023/12/01 10:47:59;;;;;;;25.80;17.58;;;1.60;99.90;;;;;;6272536;22;20418;-85
2023/12/01 10:50:47;;;;;;;28.25;17.42;;;1.70;99.90;;;;;;6273787;22;20102;-84
2023/12/01 10:53:36;;;;;;;26.92;17.33;;;1.60;99.90;;;;;;6274320;22;20105;-82
2023/12/01 10:56:29;;;;;;;27.27;15.85;;;1.60;99.90;;;;;;6273808;22;20694;-84
2023/12/01 10:59:19;;;;;;;23.33;14.73;;;1.60;99.90;;;;;;6273634;22;20133;-82
2023/12/01 11:02:09;;;;;;;22.30;15.77;;;1.70;99.90;;;;;;6270663;22;20344;-84
2023/12/01 11:04:58;;;;;;;25.48;16.98;;;1.70;99.90;;;;;;6271268;22;20055;-83
2023/12/01 11:08:06;;;;;;;23.58;15.25;;;1.70;99.90;;;;;;6273600;22;20286;-84
2023/12/01 11:11:07;;;;;;;29.92;18.65;;;1.80;99.90;;;;;;6240491;22;20037;-82
2023/12/01 11:14:08;;;;;;;35.65;18.88;;;1.60;99.90;;;;;;6273090;22;20043;-82
2023/12/01 11:16:55;;;;;;;26.77;16.77;;;1.50;99.90;;;;;;6272567;22;20028;-83
2023/12/01 11:19:43;;;;;;;30.33;17.55;;;1.50;99.90;;;;;;6269573;22;20118;-85
2023/12/01 11:22:32;;;;;;;26.75;16.90;;;1.50;99.90;;;;;;6273387;22;20032;-85
2023/12/01 11:25:39;;;;;;;27.88;17.40;;;1.50;99.90;;;;;;6269572;22;20046;-84
2023/12/01 11:31:41;;;;;;;20.95;14.35;;;1.60;99.90;;;;;;6272558;22;20027;-83
2023/12/01 11:34:29;;;;;;;21.20;13.80;;;1.60;99.90;;;;;;6270370;22;20648;-84
2023/12/01 11:37:16;;;;;;;21.60;13.98;;;1.60;99.90;;;;;;6271854;22;20052;-81
2023/12/01 11:40:23;;;;;;;19.67;13.45;;;1.70;99.90;;;;;;6274075;22;20103;-81
2023/12/01 11:43:11;;;;;;;23.80;14.85;;;1.70;99.90;;;;;;6288550;22;20096;-83
2023/12/01 11:46:09;;;;;;;24.63;15.50;;;1.60;99.90;;;;;;6289426;22;20030;-86
2023/12/01 11:48:57;;;;;;;24.52;16.90;;;1.50;99.90;;;;;;6291059;22;20027;-86
2023/12/01 11:51:45;;;;;;;21.00;14.35;;;1.50;99.90;;;;;;6291857;22;20027;-80
2023/12/01 11:54:36;;;;;;;18.80;12.98;;;1.50;99.90;;;;;;6294733;22;20089;-83
2023/12/01 11:57:25;;;;;;;18.35;12.45;;;1.60;99.90;;;;;;6293593;22;20069;-84
2023/12/01 12:00:16;;;;;;;20.90;12.45;;;1.50;99.90;;;;;;6293501;22;20083;-85
2023/12/01 12:03:19;;;;;;;22.15;13.98;;;1.50;99.90;;;;;;6299773;22;20035;-84
2023/12/01 12:06:11;;;;;;;22.88;13.30;;;1.50;99.90;;;;;;6292079;22;20075;-85
2023/12/01 12:09:06;;;;;;;25.65;14.75;;;1.40;99.90;;;;;;6287134;22;20039;-83
2023/12/01 12:11:55;;;;;;;24.33;14.35;;;1.40;99.90;;;;;;6283185;22;20030;-85
2023/12/01 12:18:35;;;;;;;30.80;17.83;;;1.30;99.90;;;;;;6277635;22;20018;-84
2023/12/01 12:21:24;;;;;;;32.17;18.48;;;1.20;99.90;;;;;;6281135;22;20370;-82
2023/12/01 12:24:17;;;;;;;30.92;17.80;;;1.20;99.90;;;;;;6278219;22;20042;-83
2023/12/01 12:27:05;;;;;;;34.17;19.20;;;1.10;99.90;;;;;;6280441;22;20023;-81
2023/12/01 12:30:03;;;;;;;39.45;20.75;;;1.10;99.90;;;;;;6277618;22;20107;-82
2023/12/01 12:32:53;;;;;;;33.63;18.05;;;1.10;99.90;;;;;;6275148;22;20438;-83
2023/12/01 12:35:44;;;;;;;36.50;18.70;;;1.10;99.90;;;;;;6274800;22;20024;-83
2023/12/01 12:38:33;;;;;;;34.17;18.52;;;1.10;99.90;;;;;;6272370;22;20038;-83
2023/12/01 12:41:30;;;;;;;37.38;20.63;;;1.10;99.90;;;;;;6275129;22;20027;-82
2023/12/01 12:44:20;;;;;;;38.83;21.33;;;1.00;99.90;;;;;;6275626;22;20039;-83
2023/12/01 12:47:12;;;;;;;36.97;20.27;;;1.00;99.90;;;;;;6272853;22;20109;-83
2023/12/01 12:50:07;;;;;;;42.58;22.00;;;1.00;99.90;;;;;;6272923;22;20034;-84
2023/12/01 12:52:55;;;;;;;44.30;22.20;;;1.00;99.90;;;;;;6275468;22;20054;-84
2023/12/01 12:55:42;;;;;;;44.97;22.92;;;1.00;99.90;;;;;;6275900;22;20071;-84
2023/12/01 12:58:33;;;;;;;47.95;24.75;;;1.00;99.90;;;;;;6272251;22;20451;-85
2023/12/01 13:01:24;;;;;;;35.10;20.43;;;0.90;99.90;;;;;;6274641;22;20262;-87
2023/12/01 13:04:14;;;;;;;55.33;26.13;;;0.90;99.90;;;;;;6276932;22;20023;-84
2023/12/01 13:07:04;;;;;;;50.28;23.92;;;0.90;99.90;;;;;;6277193;22;20099;-83
2023/12/01 13:09:53;;;;;;;48.13;23.88;;;1.00;99.90;;;;;;6274626;22;20095;-85
2023/12/01 13:12:43;;;;;;;49.55;24.13;;;1.00;99.90;;;;;;6273870;22;20464;-84
2023/12/01 13:15:52;;;;;;;52.80;26.95;;;1.00;99.90;;;;;;6276707;22;20267;-81
2023/12/01 13:18:53;;;;;;;;;;;;;;;;;;;;;
2023/12/01 13:21:52;;;;;;;54.38;27.25;;;0.90;99.90;;;;;;6275546;22;20032;-85
2023/12/01 13:24:45;;;;;;;59.03;27.15;;;1.00;99.90;;;;;;6277785;22;20042;-85
2023/12/01 13:27:36;;;;;;;57.35;27.33;;;1.00;99.90;;;;;;6272312;22;20034;-86
2023/12/01 13:30:29;;;;;;;57.25;28.30;;;1.00;99.90;;;;;;6252774;22;20020;-82
2023/12/01 13:33:17;;;;;;;54.97;26.95;;;1.00;99.90;;;;;;6276427;22;20034;-80
2023/12/01 13:36:10;;;;;;;56.08;27.52;;;0.90;99.90;;;;;;6276207;22;20402;-86
2023/12/01 13:39:03;;;;;;;57.03;28.23;;;0.80;99.90;;;;;;6276553;22;20031;-86
2023/12/01 13:41:53;;;;;;;58.60;27.42;;;0.80;99.90;;;;;;6275322;22;20035;-87
2023/12/01 13:44:40;;;;;;;54.05;27.13;;;0.80;99.90;;;;;;6274199;22;20027;-87
2023/12/01 13:47:56;;;;;;;59.38;28.65;;;0.80;99.90;;;;;;6266748;22;20367;-85
2023/12/01 13:50:44;;;;;;;58.17;27.90;;;0.80;99.90;;;;;;6272308;22;20094;-84
2023/12/01 13:53:34;;;;;;;58.88;28.45;;;0.80;99.90;;;;;;6271461;22;20019;-84
2023/12/01 13:56:22;;;;;;;56.38;28.60;;;0.70;99.90;;;;;;6273469;22;20020;-84
2023/12/01 13:59:21;;;;;;;56.20;28.00;;;0.70;99.90;;;;;;6271648;22;20074;-84
2023/12/01 14:02:10;;;;;;;55.53;28.23;;;0.70;99.90;;;;;;6274366;22;20100;-85
2023/12/01 14:04:57;;;;;;;55.45;29.92;;;0.70;99.90;;;;;;6272918;22;20054;-82
2023/12/01 14:07:48;;;;;;;57.15;28.63;;;0.60;99.90;;;;;;6272141;22;20038;-83
2023/12/01 14:10:40;;;;;;;54.05;28.13;;;0.70;99.90;;;;;;6271216;22;20035;-84
2023/12/01 14:13:30;;;;;;;48.17;27.20;;;0.70;99.90;;;;;;6273563;22;20274;-84
2023/12/01 14:16:17;;;;;;;47.42;26.45;;;0.70;99.90;;;;;;6274222;22;20303;-84
2023/12/01 14:19:14;;;;;;;43.97;25.05;;;0.60;99.90;;;;;;6269953;22;20028;-83
2023/12/01 14:22:02;;;;;;;48.45;25.92;;;0.60;99.90;;;;;;6276881;22;20043;-82
2023/12/01 14:24:50;;;;;;;48.47;26.33;;;0.60;99.90;;;;;;6275025;22;20024;-84
2023/12/01 14:27:37;;;;;;;47.25;26.27;;;0.60;99.90;;;;;;6273880;22;20088;-84
2023/12/01 14:30:25;;;;;;;45.70;25.23;;;0.50;99.90;;;;;;6272983;22;20020;-81
2023/12/01 14:33:15;;;;;;;49.17;26.13;;;0.50;99.90;;;;;;6273144;22;20102;-86
2023/12/01 14:36:02;;;;;;;49.15;25.35;;;0.50;99.90;;;;;;6277401;22;20038;-83
2023/12/01 14:38:53;;;;;;;50.00;26.42;;;0.40;99.90;;;;;;6277286;22;20035;-84
2023/12/01 14:41:42;;;;;;;47.10;25.23;;;0.40;99.90;;;;;;6275685;22;20059;-84